sensor_id;sensor_type;location;lat;lon;timestamp;P1;durP1;ratioP1;P2;durP2;ratioP2
801;SDS011;383;48.766;9.270;2023-09-30T00:00:58;8.57;;;3.50;;
801;SDS011;383;48.766;9.270;2023-09-30T00:03:25;8.80;;;3.03;;
801;SDS011;383;48.766;9.270;2023-09-30T00:05:51;18.20;;;3.30;;
801;SDS011;383;48.766;9.270;2023-09-30T00:08:18;9.77;;;3.30;;
801;SDS011;383;48.766;9.270;2023-09-30T00:10:45;8.23;;;2.83;;
801;SDS011;383;48.766;9.270;2023-09-30T00:13:12;10.73;;;3.67;;
801;SDS011;383;48.766;9.270;2023-09-30T00:15:38;9.73;;;2.80;;
801;SDS011;383;48.766;9.270;2023-09-30T00:18:07;8.20;;;3.13;;
801;SDS011;383;48.766;9.270;2023-09-30T00:20:34;12.17;;;3.03;;
801;SDS011;383;48.766;9.270;2023-09-30T00:23:01;10.60;;;3.30;;
801;SDS011;383;48.766;9.270;2023-09-30T00:25:28;9.20;;;3.07;;
801;SDS011;383;48.766;9.270;2023-09-30T00:27:54;7.63;;;2.90;;
801;SDS011;383;48.766;9.270;2023-09-30T00:30:21;7.90;;;3.23;;
801;SDS011;383;48.766;9.270;2023-09-30T00:32:48;13.87;;;2.63;;
801;SDS011;383;48.766;9.270;2023-09-30T00:35:16;11.83;;;3.53;;
801;SDS011;383;48.766;9.270;2023-09-30T00:37:43;10.10;;;3.30;;
801;SDS011;383;48.766;9.270;2023-09-30T00:40:10;6.00;;;2.50;;
801;SDS011;383;48.766;9.270;2023-09-30T00:42:38;9.87;;;3.80;;
801;SDS011;383;48.766;9.270;2023-09-30T00:45:06;6.10;;;2.60;;
801;SDS011;383;48.766;9.270;2023-09-30T00:47:34;10.60;;;2.10;;
801;SDS011;383;48.766;9.270;2023-09-30T00:50:02;6.73;;;2.70;;
801;SDS011;383;48.766;9.270;2023-09-30T00:52:30;3.70;;;2.13;;
801;SDS011;383;48.766;9.270;2023-09-30T00:54:58;6.37;;;2.40;;
801;SDS011;383;48.766;9.270;2023-09-30T00:57:25;8.17;;;2.40;;
801;SDS011;383;48.766;9.270;2023-09-30T00:59:53;4.30;;;2.50;;
801;SDS011;383;48.766;9.270;2023-09-30T01:02:20;3.77;;;1.73;;
801;SDS011;383;48.766;9.270;2023-09-30T01:04:48;3.10;;;1.67;;
801;SDS011;383;48.766;9.270;2023-09-30T01:07:16;5.23;;;1.93;;
801;SDS011;383;48.766;9.270;2023-09-30T01:09:48;3.83;;;2.33;;
801;SDS011;383;48.766;9.270;2023-09-30T01:12:15;3.23;;;2.23;;
801;SDS011;383;48.766;9.270;2023-09-30T01:14:42;3.63;;;2.20;;
801;SDS011;383;48.766;9.270;2023-09-30T01:17:09;6.50;;;2.00;;
801;SDS011;383;48.766;9.270;2023-09-30T01:19:38;3.37;;;1.70;;
801;SDS011;383;48.766;9.270;2023-09-30T01:22:06;5.23;;;2.00;;
801;SDS011;383;48.766;9.270;2023-09-30T01:24:37;2.70;;;1.93;;
801;SDS011;383;48.766;9.270;2023-09-30T01:27:05;4.27;;;2.20;;
801;SDS011;383;48.766;9.270;2023-09-30T01:29:32;3.77;;;2.67;;
801;SDS011;383;48.766;9.270;2023-09-30T01:32:00;3.90;;;2.43;;
801;SDS011;383;48.766;9.270;2023-09-30T01:34:26;3.03;;;2.33;;
801;SDS011;383;48.766;9.270;2023-09-30T01:36:53;7.60;;;2.40;;
801;SDS011;383;48.766;9.270;2023-09-30T01:39:21;6.60;;;2.10;;
801;SDS011;383;48.766;9.270;2023-09-30T01:41:48;6.03;;;2.80;;
801;SDS011;383;48.766;9.270;2023-09-30T01:44:15;5.00;;;2.47;;
801;SDS011;383;48.766;9.270;2023-09-30T01:46:41;4.87;;;2.50;;
801;SDS011;383;48.766;9.270;2023-09-30T01:49:08;4.53;;;2.33;;
801;SDS011;383;48.766;9.270;2023-09-30T01:51:35;3.77;;;1.97;;
801;SDS011;383;48.766;9.270;2023-09-30T01:54:02;4.77;;;2.40;;
801;SDS011;383;48.766;9.270;2023-09-30T01:56:31;6.13;;;2.77;;
801;SDS011;383;48.766;9.270;2023-09-30T01:58:59;3.50;;;2.67;;
801;SDS011;383;48.766;9.270;2023-09-30T02:01:25;4.43;;;2.43;;
801;SDS011;383;48.766;9.270;2023-09-30T02:03:52;5.77;;;2.30;;
801;SDS011;383;48.766;9.270;2023-09-30T02:06:19;4.67;;;2.30;;
801;SDS011;383;48.766;9.270;2023-09-30T02:08:46;5.83;;;2.37;;
801;SDS011;383;48.766;9.270;2023-09-30T02:11:12;3.03;;;2.10;;
801;SDS011;383;48.766;9.270;2023-09-30T02:13:41;4.23;;;2.50;;
801;SDS011;383;48.766;9.270;2023-09-30T02:16:11;6.53;;;2.20;;
801;SDS011;383;48.766;9.270;2023-09-30T02:18:38;7.43;;;2.30;;
801;SDS011;383;48.766;9.270;2023-09-30T02:21:06;9.93;;;3.20;;
801;SDS011;383;48.766;9.270;2023-09-30T02:23:34;7.80;;;2.10;;
801;SDS011;383;48.766;9.270;2023-09-30T02:26:00;3.07;;;2.00;;
801;SDS011;383;48.766;9.270;2023-09-30T02:28:27;9.33;;;3.13;;
801;SDS011;383;48.766;9.270;2023-09-30T02:30:58;4.83;;;2.60;;
801;SDS011;383;48.766;9.270;2023-09-30T02:33:25;3.20;;;1.90;;
801;SDS011;383;48.766;9.270;2023-09-30T02:35:52;4.60;;;2.00;;
801;SDS011;383;48.766;9.270;2023-09-30T02:38:19;5.33;;;2.63;;
801;SDS011;383;48.766;9.270;2023-09-30T02:40:47;5.13;;;2.27;;
801;SDS011;383;48.766;9.270;2023-09-30T02:43:16;6.30;;;2.70;;
801;SDS011;383;48.766;9.270;2023-09-30T02:45:42;4.67;;;2.23;;
801;SDS011;383;48.766;9.270;2023-09-30T02:48:11;7.53;;;2.10;;
801;SDS011;383;48.766;9.270;2023-09-30T02:50:38;5.37;;;2.17;;
801;SDS011;383;48.766;9.270;2023-09-30T02:53:09;6.07;;;2.60;;
801;SDS011;383;48.766;9.270;2023-09-30T02:55:36;4.10;;;2.20;;
801;SDS011;383;48.766;9.270;2023-09-30T02:58:02;5.27;;;2.60;;
801;SDS011;383;48.766;9.270;2023-09-30T03:00:29;10.80;;;3.43;;
801;SDS011;383;48.766;9.270;2023-09-30T03:02:59;8.63;;;3.07;;
801;SDS011;383;48.766;9.270;2023-09-30T03:05:28;6.60;;;3.40;;
801;SDS011;383;48.766;9.270;2023-09-30T03:07:58;6.30;;;3.50;;
801;SDS011;383;48.766;9.270;2023-09-30T03:10:25;7.37;;;4.00;;
801;SDS011;383;48.766;9.270;2023-09-30T03:12:52;5.60;;;3.20;;
801;SDS011;383;48.766;9.270;2023-09-30T03:15:19;6.97;;;3.10;;
801;SDS011;383;48.766;9.270;2023-09-30T03:17:46;7.87;;;3.53;;
801;SDS011;383;48.766;9.270;2023-09-30T03:20:14;6.37;;;3.47;;
801;SDS011;383;48.766;9.270;2023-09-30T03:22:45;5.90;;;3.10;;
801;SDS011;383;48.766;9.270;2023-09-30T03:25:13;4.10;;;2.70;;
801;SDS011;383;48.766;9.270;2023-09-30T03:27:42;5.07;;;3.10;;
801;SDS011;383;48.766;9.270;2023-09-30T03:30:09;7.80;;;3.30;;
801;SDS011;383;48.766;9.270;2023-09-30T03:32:37;6.20;;;3.07;;
801;SDS011;383;48.766;9.270;2023-09-30T03:35:04;4.80;;;3.00;;
801;SDS011;383;48.766;9.270;2023-09-30T03:37:32;7.20;;;3.60;;
801;SDS011;383;48.766;9.270;2023-09-30T03:40:01;7.20;;;2.90;;
801;SDS011;383;48.766;9.270;2023-09-30T03:42:36;8.60;;;3.00;;
801;SDS011;383;48.766;9.270;2023-09-30T03:45:04;9.77;;;3.37;;
801;SDS011;383;48.766;9.270;2023-09-30T03:47:32;6.77;;;3.23;;
801;SDS011;383;48.766;9.270;2023-09-30T03:50:00;5.30;;;2.50;;
801;SDS011;383;48.766;9.270;2023-09-30T03:52:28;9.27;;;3.80;;
801;SDS011;383;48.766;9.270;2023-09-30T03:54:58;4.63;;;2.87;;
801;SDS011;383;48.766;9.270;2023-09-30T03:57:26;4.43;;;2.80;;
801;SDS011;383;48.766;9.270;2023-09-30T03:59:53;5.00;;;2.53;;
801;SDS011;383;48.766;9.270;2023-09-30T04:02:19;7.20;;;3.50;;
801;SDS011;383;48.766;9.270;2023-09-30T04:04:46;7.03;;;2.80;;
801;SDS011;383;48.766;9.270;2023-09-30T04:07:16;6.93;;;3.47;;
801;SDS011;383;48.766;9.270;2023-09-30T04:09:42;7.53;;;3.27;;
801;SDS011;383;48.766;9.270;2023-09-30T04:12:09;5.60;;;2.70;;
801;SDS011;383;48.766;9.270;2023-09-30T04:14:38;7.53;;;3.03;;
801;SDS011;383;48.766;9.270;2023-09-30T04:17:04;7.37;;;3.30;;
801;SDS011;383;48.766;9.270;2023-09-30T04:19:31;10.23;;;2.77;;
801;SDS011;383;48.766;9.270;2023-09-30T04:21:58;5.37;;;2.33;;
801;SDS011;383;48.766;9.270;2023-09-30T04:24:25;7.83;;;2.50;;
801;SDS011;383;48.766;9.270;2023-09-30T04:26:53;9.33;;;3.47;;
801;SDS011;383;48.766;9.270;2023-09-30T04:29:22;6.10;;;3.07;;
801;SDS011;383;48.766;9.270;2023-09-30T04:31:50;6.83;;;3.33;;
801;SDS011;383;48.766;9.270;2023-09-30T04:34:17;10.03;;;3.10;;
801;SDS011;383;48.766;9.270;2023-09-30T04:36:44;8.93;;;3.63;;
801;SDS011;383;48.766;9.270;2023-09-30T04:39:11;10.53;;;3.57;;
801;SDS011;383;48.766;9.270;2023-09-30T04:41:39;5.53;;;3.00;;
801;SDS011;383;48.766;9.270;2023-09-30T04:44:07;4.50;;;2.70;;
801;SDS011;383;48.766;9.270;2023-09-30T04:46:35;6.13;;;3.50;;
801;SDS011;383;48.766;9.270;2023-09-30T04:49:06;10.70;;;3.20;;
801;SDS011;383;48.766;9.270;2023-09-30T04:51:34;5.40;;;2.90;;
801;SDS011;383;48.766;9.270;2023-09-30T04:54:00;9.07;;;4.30;;
801;SDS011;383;48.766;9.270;2023-09-30T04:56:28;8.37;;;3.50;;
801;SDS011;383;48.766;9.270;2023-09-30T04:58:55;8.10;;;3.23;;
801;SDS011;383;48.766;9.270;2023-09-30T05:01:23;7.27;;;3.50;;
801;SDS011;383;48.766;9.270;2023-09-30T05:03:50;5.47;;;3.10;;
801;SDS011;383;48.766;9.270;2023-09-30T05:06:18;6.40;;;2.83;;
801;SDS011;383;48.766;9.270;2023-09-30T05:08:46;11.17;;;4.10;;
801;SDS011;383;48.766;9.270;2023-09-30T05:11:13;9.27;;;3.70;;
801;SDS011;383;48.766;9.270;2023-09-30T05:13:40;16.20;;;4.60;;
801;SDS011;383;48.766;9.270;2023-09-30T05:16:07;5.50;;;2.77;;
801;SDS011;383;48.766;9.270;2023-09-30T05:18:33;12.17;;;4.23;;
801;SDS011;383;48.766;9.270;2023-09-30T05:21:00;8.40;;;2.93;;
801;SDS011;383;48.766;9.270;2023-09-30T05:23:29;5.30;;;2.97;;
801;SDS011;383;48.766;9.270;2023-09-30T05:25:57;7.27;;;4.43;;
801;SDS011;383;48.766;9.270;2023-09-30T05:28:24;7.43;;;3.20;;
801;SDS011;383;48.766;9.270;2023-09-30T05:30:52;7.80;;;4.73;;
801;SDS011;383;48.766;9.270;2023-09-30T05:33:18;8.70;;;3.80;;
801;SDS011;383;48.766;9.270;2023-09-30T05:35:45;12.50;;;3.90;;
801;SDS011;383;48.766;9.270;2023-09-30T05:38:12;5.23;;;3.20;;
801;SDS011;383;48.766;9.270;2023-09-30T05:40:40;8.40;;;3.20;;
801;SDS011;383;48.766;9.270;2023-09-30T05:43:08;10.40;;;3.77;;
801;SDS011;383;48.766;9.270;2023-09-30T05:45:39;10.43;;;4.50;;
801;SDS011;383;48.766;9.270;2023-09-30T05:48:14;5.87;;;3.67;;
801;SDS011;383;48.766;9.270;2023-09-30T05:50:41;5.97;;;3.40;;
801;SDS011;383;48.766;9.270;2023-09-30T05:53:09;11.30;;;4.60;;
801;SDS011;383;48.766;9.270;2023-09-30T05:55:36;6.20;;;3.13;;
801;SDS011;383;48.766;9.270;2023-09-30T05:58:05;9.73;;;3.73;;
801;SDS011;383;48.766;9.270;2023-09-30T06:00:32;5.60;;;3.23;;
801;SDS011;383;48.766;9.270;2023-09-30T06:03:00;7.17;;;3.33;;
801;SDS011;383;48.766;9.270;2023-09-30T06:05:29;12.23;;;3.43;;
801;SDS011;383;48.766;9.270;2023-09-30T06:07:56;12.90;;;3.23;;
801;SDS011;383;48.766;9.270;2023-09-30T06:10:23;5.60;;;2.87;;
801;SDS011;383;48.766;9.270;2023-09-30T06:12:51;7.50;;;3.80;;
801;SDS011;383;48.766;9.270;2023-09-30T06:15:21;6.50;;;3.80;;
801;SDS011;383;48.766;9.270;2023-09-30T06:17:51;7.80;;;3.40;;
801;SDS011;383;48.766;9.270;2023-09-30T06:20:18;10.23;;;3.07;;
801;SDS011;383;48.766;9.270;2023-09-30T06:22:45;5.30;;;3.20;;
801;SDS011;383;48.766;9.270;2023-09-30T06:25:14;8.10;;;3.47;;
801;SDS011;383;48.766;9.270;2023-09-30T06:27:41;5.13;;;3.80;;
801;SDS011;383;48.766;9.270;2023-09-30T06:30:09;9.53;;;3.70;;
801;SDS011;383;48.766;9.270;2023-09-30T06:32:37;6.67;;;3.57;;
801;SDS011;383;48.766;9.270;2023-09-30T06:35:06;7.30;;;3.40;;
801;SDS011;383;48.766;9.270;2023-09-30T06:37:35;7.90;;;3.90;;
801;SDS011;383;48.766;9.270;2023-09-30T06:40:02;9.10;;;4.67;;
801;SDS011;383;48.766;9.270;2023-09-30T06:42:30;11.53;;;3.87;;
801;SDS011;383;48.766;9.270;2023-09-30T06:44:57;10.83;;;4.63;;
801;SDS011;383;48.766;9.270;2023-09-30T06:47:24;7.00;;;3.63;;
801;SDS011;383;48.766;9.270;2023-09-30T06:49:52;8.20;;;4.07;;
801;SDS011;383;48.766;9.270;2023-09-30T06:52:18;7.00;;;3.80;;
801;SDS011;383;48.766;9.270;2023-09-30T06:54:46;6.23;;;3.40;;
801;SDS011;383;48.766;9.270;2023-09-30T06:57:12;7.03;;;3.60;;
801;SDS011;383;48.766;9.270;2023-09-30T06:59:39;7.00;;;4.23;;
801;SDS011;383;48.766;9.270;2023-09-30T07:02:06;6.53;;;3.43;;
801;SDS011;383;48.766;9.270;2023-09-30T07:04:32;4.47;;;3.13;;
801;SDS011;383;48.766;9.270;2023-09-30T07:07:00;7.60;;;2.70;;
801;SDS011;383;48.766;9.270;2023-09-30T07:09:27;10.90;;;4.90;;
801;SDS011;383;48.766;9.270;2023-09-30T07:11:55;8.43;;;3.70;;
801;SDS011;383;48.766;9.270;2023-09-30T07:14:22;9.83;;;4.20;;
801;SDS011;383;48.766;9.270;2023-09-30T07:16:48;9.27;;;4.20;;
801;SDS011;383;48.766;9.270;2023-09-30T07:19:15;9.03;;;4.20;;
801;SDS011;383;48.766;9.270;2023-09-30T07:21:42;9.70;;;4.40;;
801;SDS011;383;48.766;9.270;2023-09-30T07:24:10;10.03;;;3.57;;
801;SDS011;383;48.766;9.270;2023-09-30T07:26:37;9.80;;;4.93;;
801;SDS011;383;48.766;9.270;2023-09-30T07:29:04;8.27;;;3.70;;
801;SDS011;383;48.766;9.270;2023-09-30T07:31:33;11.63;;;4.67;;
801;SDS011;383;48.766;9.270;2023-09-30T07:34:01;8.97;;;4.07;;
801;SDS011;383;48.766;9.270;2023-09-30T07:36:27;9.60;;;4.40;;
801;SDS011;383;48.766;9.270;2023-09-30T07:38:54;5.23;;;3.53;;
801;SDS011;383;48.766;9.270;2023-09-30T07:41:22;7.10;;;4.10;;
801;SDS011;383;48.766;9.270;2023-09-30T07:43:49;9.90;;;4.50;;
801;SDS011;383;48.766;9.270;2023-09-30T07:46:16;6.50;;;3.90;;
801;SDS011;383;48.766;9.270;2023-09-30T07:48:42;10.43;;;3.30;;
801;SDS011;383;48.766;9.270;2023-09-30T07:51:09;5.77;;;4.33;;
801;SDS011;383;48.766;9.270;2023-09-30T07:53:38;7.37;;;3.50;;
801;SDS011;383;48.766;9.270;2023-09-30T07:56:05;10.60;;;3.60;;
801;SDS011;383;48.766;9.270;2023-09-30T07:58:33;7.80;;;3.63;;
801;SDS011;383;48.766;9.270;2023-09-30T08:00:59;9.03;;;2.80;;
801;SDS011;383;48.766;9.270;2023-09-30T08:03:27;5.63;;;3.00;;
801;SDS011;383;48.766;9.270;2023-09-30T08:05:54;6.33;;;3.03;;
801;SDS011;383;48.766;9.270;2023-09-30T08:08:21;6.30;;;3.20;;
801;SDS011;383;48.766;9.270;2023-09-30T08:10:49;9.10;;;3.60;;
801;SDS011;383;48.766;9.270;2023-09-30T08:13:20;8.27;;;3.07;;
801;SDS011;383;48.766;9.270;2023-09-30T08:15:48;21.53;;;6.70;;
801;SDS011;383;48.766;9.270;2023-09-30T08:18:15;12.17;;;5.70;;
801;SDS011;383;48.766;9.270;2023-09-30T08:20:42;8.63;;;3.33;;
801;SDS011;383;48.766;9.270;2023-09-30T08:23:09;18.60;;;4.47;;
801;SDS011;383;48.766;9.270;2023-09-30T08:25:36;16.83;;;5.37;;
801;SDS011;383;48.766;9.270;2023-09-30T08:28:03;9.20;;;4.10;;
801;SDS011;383;48.766;9.270;2023-09-30T08:30:30;8.60;;;3.73;;
801;SDS011;383;48.766;9.270;2023-09-30T08:33:00;10.40;;;4.23;;
801;SDS011;383;48.766;9.270;2023-09-30T08:35:28;5.77;;;3.20;;
801;SDS011;383;48.766;9.270;2023-09-30T08:37:56;11.87;;;4.00;;
801;SDS011;383;48.766;9.270;2023-09-30T08:40:24;15.10;;;5.60;;
801;SDS011;383;48.766;9.270;2023-09-30T08:42:51;6.77;;;3.40;;
801;SDS011;383;48.766;9.270;2023-09-30T08:45:18;8.33;;;3.93;;
801;SDS011;383;48.766;9.270;2023-09-30T08:47:46;9.97;;;3.33;;
801;SDS011;383;48.766;9.270;2023-09-30T08:50:15;7.20;;;3.80;;
801;SDS011;383;48.766;9.270;2023-09-30T08:52:43;17.90;;;4.30;;
801;SDS011;383;48.766;9.270;2023-09-30T08:55:10;9.73;;;5.20;;
801;SDS011;383;48.766;9.270;2023-09-30T08:57:40;7.77;;;3.93;;
801;SDS011;383;48.766;9.270;2023-09-30T09:00:08;8.37;;;4.37;;
801;SDS011;383;48.766;9.270;2023-09-30T09:02:37;7.23;;;3.93;;
801;SDS011;383;48.766;9.270;2023-09-30T09:05:04;9.40;;;4.20;;
801;SDS011;383;48.766;9.270;2023-09-30T09:07:33;9.17;;;3.93;;
801;SDS011;383;48.766;9.270;2023-09-30T09:10:04;7.93;;;3.40;;
801;SDS011;383;48.766;9.270;2023-09-30T09:12:33;8.23;;;3.67;;
801;SDS011;383;48.766;9.270;2023-09-30T09:15:02;8.50;;;4.17;;
801;SDS011;383;48.766;9.270;2023-09-30T09:17:41;18.73;;;4.10;;
801;SDS011;383;48.766;9.270;2023-09-30T09:20:08;10.33;;;4.07;;
801;SDS011;383;48.766;9.270;2023-09-30T09:22:40;14.47;;;5.57;;
801;SDS011;383;48.766;9.270;2023-09-30T09:25:08;11.23;;;4.20;;
801;SDS011;383;48.766;9.270;2023-09-30T09:27:36;13.70;;;4.30;;
801;SDS011;383;48.766;9.270;2023-09-30T09:30:16;6.70;;;3.37;;
801;SDS011;383;48.766;9.270;2023-09-30T09:32:53;8.80;;;3.60;;
801;SDS011;383;48.766;9.270;2023-09-30T09:35:24;8.30;;;4.23;;
801;SDS011;383;48.766;9.270;2023-09-30T09:37:55;9.13;;;4.43;;
801;SDS011;383;48.766;9.270;2023-09-30T09:40:23;11.03;;;3.90;;
801;SDS011;383;48.766;9.270;2023-09-30T09:42:51;7.10;;;3.40;;
801;SDS011;383;48.766;9.270;2023-09-30T09:45:20;13.90;;;4.87;;
801;SDS011;383;48.766;9.270;2023-09-30T09:47:47;17.67;;;3.77;;
801;SDS011;383;48.766;9.270;2023-09-30T09:50:16;6.40;;;3.80;;
801;SDS011;383;48.766;9.270;2023-09-30T09:52:44;7.10;;;3.23;;
801;SDS011;383;48.766;9.270;2023-09-30T09:55:14;10.60;;;4.17;;
801;SDS011;383;48.766;9.270;2023-09-30T09:57:43;8.13;;;3.60;;
801;SDS011;383;48.766;9.270;2023-09-30T10:00:11;9.47;;;4.20;;
801;SDS011;383;48.766;9.270;2023-09-30T10:02:39;14.13;;;3.80;;
801;SDS011;383;48.766;9.270;2023-09-30T10:05:06;12.70;;;4.27;;
801;SDS011;383;48.766;9.270;2023-09-30T10:07:37;7.23;;;3.40;;
801;SDS011;383;48.766;9.270;2023-09-30T10:10:10;8.23;;;3.33;;
801;SDS011;383;48.766;9.270;2023-09-30T10:12:41;8.80;;;3.93;;
801;SDS011;383;48.766;9.270;2023-09-30T10:18:01;15.13;;;4.53;;
801;SDS011;383;48.766;9.270;2023-09-30T10:20:29;10.60;;;4.40;;
801;SDS011;383;48.766;9.270;2023-09-30T10:23:17;5.60;;;3.13;;
801;SDS011;383;48.766;9.270;2023-09-30T10:25:44;6.97;;;3.10;;
801;SDS011;383;48.766;9.270;2023-09-30T10:31:09;7.97;;;3.97;;
801;SDS011;383;48.766;9.270;2023-09-30T10:33:37;5.77;;;3.03;;
801;SDS011;383;48.766;9.270;2023-09-30T10:36:44;15.30;;;3.93;;
801;SDS011;383;48.766;9.270;2023-09-30T10:39:13;8.77;;;3.70;;
801;SDS011;383;48.766;9.270;2023-09-30T10:41:49;12.63;;;4.00;;
801;SDS011;383;48.766;9.270;2023-09-30T10:47:00;9.07;;;3.97;;
801;SDS011;383;48.766;9.270;2023-09-30T10:49:49;10.80;;;4.20;;
801;SDS011;383;48.766;9.270;2023-09-30T10:52:21;11.40;;;3.90;;
801;SDS011;383;48.766;9.270;2023-09-30T10:54:49;7.43;;;3.77;;
801;SDS011;383;48.766;9.270;2023-09-30T10:57:26;9.10;;;4.20;;
801;SDS011;383;48.766;9.270;2023-09-30T11:00:08;11.37;;;3.90;;
801;SDS011;383;48.766;9.270;2023-09-30T11:02:47;11.70;;;4.80;;
801;SDS011;383;48.766;9.270;2023-09-30T11:05:14;10.82;;;4.82;;
801;SDS011;383;48.766;9.270;2023-09-30T11:07:41;12.90;;;4.70;;
801;SDS011;383;48.766;9.270;2023-09-30T11:10:09;9.90;;;4.17;;
801;SDS011;383;48.766;9.270;2023-09-30T11:12:37;11.20;;;4.30;;
801;SDS011;383;48.766;9.270;2023-09-30T11:15:05;11.20;;;5.27;;
801;SDS011;383;48.766;9.270;2023-09-30T11:17:36;10.30;;;4.30;;
801;SDS011;383;48.766;9.270;2023-09-30T11:20:03;12.40;;;4.33;;
801;SDS011;383;48.766;9.270;2023-09-30T11:22:31;13.00;;;5.30;;
801;SDS011;383;48.766;9.270;2023-09-30T11:24:59;7.07;;;3.70;;
801;SDS011;383;48.766;9.270;2023-09-30T11:27:28;12.17;;;4.90;;
801;SDS011;383;48.766;9.270;2023-09-30T11:29:56;9.73;;;3.93;;
801;SDS011;383;48.766;9.270;2023-09-30T11:32:24;13.47;;;4.93;;
801;SDS011;383;48.766;9.270;2023-09-30T11:34:53;15.10;;;5.30;;
801;SDS011;383;48.766;9.270;2023-09-30T11:37:20;16.13;;;5.30;;
801;SDS011;383;48.766;9.270;2023-09-30T11:39:47;11.60;;;4.37;;
801;SDS011;383;48.766;9.270;2023-09-30T11:42:15;10.97;;;5.27;;
801;SDS011;383;48.766;9.270;2023-09-30T11:44:44;15.47;;;5.20;;
801;SDS011;383;48.766;9.270;2023-09-30T11:47:13;13.13;;;4.53;;
801;SDS011;383;48.766;9.270;2023-09-30T11:49:42;12.47;;;4.80;;
801;SDS011;383;48.766;9.270;2023-09-30T11:52:12;17.00;;;5.27;;
801;SDS011;383;48.766;9.270;2023-09-30T11:54:40;16.90;;;5.07;;
801;SDS011;383;48.766;9.270;2023-09-30T11:57:09;9.83;;;3.63;;
801;SDS011;383;48.766;9.270;2023-09-30T11:59:37;14.10;;;4.67;;
801;SDS011;383;48.766;9.270;2023-09-30T12:02:05;14.60;;;6.87;;
801;SDS011;383;48.766;9.270;2023-09-30T12:04:33;9.37;;;5.00;;
801;SDS011;383;48.766;9.270;2023-09-30T12:07:00;12.60;;;4.80;;
801;SDS011;383;48.766;9.270;2023-09-30T12:09:29;14.90;;;4.63;;
801;SDS011;383;48.766;9.270;2023-09-30T12:11:56;10.83;;;4.80;;
801;SDS011;383;48.766;9.270;2023-09-30T12:14:24;12.07;;;4.37;;
801;SDS011;383;48.766;9.270;2023-09-30T12:16:51;12.37;;;4.33;;
801;SDS011;383;48.766;9.270;2023-09-30T12:19:18;11.20;;;4.50;;
801;SDS011;383;48.766;9.270;2023-09-30T12:21:45;16.07;;;5.73;;
801;SDS011;383;48.766;9.270;2023-09-30T12:24:13;13.80;;;4.50;;
801;SDS011;383;48.766;9.270;2023-09-30T12:26:42;9.33;;;4.33;;
801;SDS011;383;48.766;9.270;2023-09-30T12:29:13;11.33;;;4.93;;
801;SDS011;383;48.766;9.270;2023-09-30T12:31:41;14.60;;;5.93;;
801;SDS011;383;48.766;9.270;2023-09-30T12:34:08;14.70;;;5.00;;
801;SDS011;383;48.766;9.270;2023-09-30T12:36:35;11.83;;;4.40;;
801;SDS011;383;48.766;9.270;2023-09-30T12:39:02;9.70;;;4.17;;
801;SDS011;383;48.766;9.270;2023-09-30T12:41:35;12.20;;;3.87;;
801;SDS011;383;48.766;9.270;2023-09-30T12:44:04;14.03;;;4.70;;
801;SDS011;383;48.766;9.270;2023-09-30T12:46:30;14.37;;;5.07;;
801;SDS011;383;48.766;9.270;2023-09-30T12:48:59;17.53;;;5.27;;
801;SDS011;383;48.766;9.270;2023-09-30T12:51:26;12.90;;;4.50;;
801;SDS011;383;48.766;9.270;2023-09-30T12:53:53;10.40;;;4.00;;
801;SDS011;383;48.766;9.270;2023-09-30T12:56:20;10.33;;;3.63;;
801;SDS011;383;48.766;9.270;2023-09-30T12:58:47;9.77;;;4.27;;
801;SDS011;383;48.766;9.270;2023-09-30T13:01:15;10.17;;;4.57;;
801;SDS011;383;48.766;9.270;2023-09-30T13:03:43;10.50;;;4.60;;
801;SDS011;383;48.766;9.270;2023-09-30T13:06:10;16.13;;;4.90;;
801;SDS011;383;48.766;9.270;2023-09-30T13:08:37;13.40;;;4.60;;
801;SDS011;383;48.766;9.270;2023-09-30T13:11:04;10.27;;;4.37;;
801;SDS011;383;48.766;9.270;2023-09-30T13:13:31;16.67;;;5.20;;
801;SDS011;383;48.766;9.270;2023-09-30T13:15:58;10.27;;;4.67;;
801;SDS011;383;48.766;9.270;2023-09-30T13:18:26;15.20;;;4.83;;
801;SDS011;383;48.766;9.270;2023-09-30T13:20:53;11.00;;;5.10;;
801;SDS011;383;48.766;9.270;2023-09-30T13:23:21;11.40;;;4.27;;
801;SDS011;383;48.766;9.270;2023-09-30T13:25:48;11.43;;;5.30;;
801;SDS011;383;48.766;9.270;2023-09-30T13:28:15;14.93;;;4.63;;
801;SDS011;383;48.766;9.270;2023-09-30T13:30:42;13.00;;;4.80;;
801;SDS011;383;48.766;9.270;2023-09-30T13:33:10;16.77;;;4.10;;
801;SDS011;383;48.766;9.270;2023-09-30T13:35:38;12.30;;;4.80;;
801;SDS011;383;48.766;9.270;2023-09-30T13:38:05;10.33;;;5.00;;
801;SDS011;383;48.766;9.270;2023-09-30T13:40:33;12.00;;;4.97;;
801;SDS011;383;48.766;9.270;2023-09-30T13:42:59;13.23;;;4.53;;
801;SDS011;383;48.766;9.270;2023-09-30T13:45:26;11.57;;;5.30;;
801;SDS011;383;48.766;9.270;2023-09-30T13:47:53;19.90;;;5.30;;
801;SDS011;383;48.766;9.270;2023-09-30T13:50:20;12.97;;;5.03;;
801;SDS011;383;48.766;9.270;2023-09-30T13:52:48;13.47;;;5.30;;
801;SDS011;383;48.766;9.270;2023-09-30T13:55:15;11.90;;;4.80;;
801;SDS011;383;48.766;9.270;2023-09-30T13:57:44;17.90;;;6.00;;
801;SDS011;383;48.766;9.270;2023-09-30T14:00:11;8.97;;;4.00;;
801;SDS011;383;48.766;9.270;2023-09-30T14:02:38;13.73;;;4.63;;
801;SDS011;383;48.766;9.270;2023-09-30T14:05:05;13.83;;;4.77;;
801;SDS011;383;48.766;9.270;2023-09-30T14:07:33;12.73;;;4.50;;
801;SDS011;383;48.766;9.270;2023-09-30T14:10:01;14.30;;;4.80;;
801;SDS011;383;48.766;9.270;2023-09-30T14:12:29;9.07;;;3.90;;
801;SDS011;383;48.766;9.270;2023-09-30T14:14:56;10.63;;;4.43;;
801;SDS011;383;48.766;9.270;2023-09-30T14:17:23;16.03;;;5.10;;
801;SDS011;383;48.766;9.270;2023-09-30T14:19:58;20.60;;;7.90;;
801;SDS011;383;48.766;9.270;2023-09-30T14:22:25;19.00;;;6.30;;
801;SDS011;383;48.766;9.270;2023-09-30T14:24:52;16.30;;;4.50;;
801;SDS011;383;48.766;9.270;2023-09-30T14:27:20;10.13;;;5.10;;
801;SDS011;383;48.766;9.270;2023-09-30T14:29:47;11.83;;;4.67;;
801;SDS011;383;48.766;9.270;2023-09-30T14:32:14;8.97;;;4.27;;
801;SDS011;383;48.766;9.270;2023-09-30T14:34:40;13.00;;;5.00;;
801;SDS011;383;48.766;9.270;2023-09-30T14:37:07;14.33;;;5.57;;
801;SDS011;383;48.766;9.270;2023-09-30T14:39:34;10.40;;;4.37;;
801;SDS011;383;48.766;9.270;2023-09-30T14:42:01;10.43;;;4.20;;
801;SDS011;383;48.766;9.270;2023-09-30T14:44:29;10.20;;;4.93;;
801;SDS011;383;48.766;9.270;2023-09-30T14:46:56;14.37;;;6.17;;
801;SDS011;383;48.766;9.270;2023-09-30T14:49:23;11.37;;;4.60;;
801;SDS011;383;48.766;9.270;2023-09-30T14:51:50;17.80;;;4.60;;
801;SDS011;383;48.766;9.270;2023-09-30T14:54:17;11.17;;;3.77;;
801;SDS011;383;48.766;9.270;2023-09-30T14:56:43;10.83;;;5.07;;
801;SDS011;383;48.766;9.270;2023-09-30T14:59:11;10.53;;;4.37;;
801;SDS011;383;48.766;9.270;2023-09-30T15:01:39;13.40;;;5.07;;
801;SDS011;383;48.766;9.270;2023-09-30T15:04:06;15.83;;;4.90;;
801;SDS011;383;48.766;9.270;2023-09-30T15:06:33;17.27;;;4.70;;
801;SDS011;383;48.766;9.270;2023-09-30T15:09:00;17.97;;;5.47;;
801;SDS011;383;48.766;9.270;2023-09-30T15:11:29;10.50;;;4.73;;
801;SDS011;383;48.766;9.270;2023-09-30T15:13:55;12.73;;;4.80;;
801;SDS011;383;48.766;9.270;2023-09-30T15:16:22;9.67;;;4.50;;
801;SDS011;383;48.766;9.270;2023-09-30T15:18:51;13.13;;;4.53;;
801;SDS011;383;48.766;9.270;2023-09-30T15:21:18;12.63;;;4.53;;
801;SDS011;383;48.766;9.270;2023-09-30T15:23:45;8.10;;;3.63;;
801;SDS011;383;48.766;9.270;2023-09-30T15:26:12;11.50;;;5.30;;
801;SDS011;383;48.766;9.270;2023-09-30T15:28:40;14.67;;;5.13;;
801;SDS011;383;48.766;9.270;2023-09-30T15:31:09;9.07;;;4.03;;
801;SDS011;383;48.766;9.270;2023-09-30T15:33:36;12.73;;;4.80;;
801;SDS011;383;48.766;9.270;2023-09-30T15:36:11;21.77;;;6.50;;
801;SDS011;383;48.766;9.270;2023-09-30T15:38:38;11.80;;;4.57;;
801;SDS011;383;48.766;9.270;2023-09-30T15:41:05;9.73;;;4.13;;
801;SDS011;383;48.766;9.270;2023-09-30T15:43:32;12.17;;;4.20;;
801;SDS011;383;48.766;9.270;2023-09-30T15:46:01;12.00;;;4.70;;
801;SDS011;383;48.766;9.270;2023-09-30T15:48:28;16.43;;;4.30;;
801;SDS011;383;48.766;9.270;2023-09-30T15:50:55;11.90;;;6.40;;
801;SDS011;383;48.766;9.270;2023-09-30T15:53:23;9.37;;;4.73;;